Wellington, Illinois
Current Conditions -  °F | °C
As of 10:15 AM on Wednesday 26 Nov 2014 (Local Time) from KDNV Reporting Station
Overcast Overcast  
Wind Chill: 18°   Ceiling: 1100
Heat Index: 26°   Visibility: 10mi
Dew Point: 22°   Wind: 7mph
Humidity: 86%   Direction: 110°ESE
Pressure: 30.11"   Gusts: NA
Location:  40.54°N, 87.68°W
Report Text: KDNV 261615Z AUTO 11006KT 10SM OVC011 M03/M05 A3011 RMK AO2 T10341054
Loading
Personal Weather Stations






























Interactive Weather Map New forecast layout! Learn more

10-Day Weather Forecast

Advertisements
Track Severe Weather on mobile